Time;durP1;ratioP1;P1;durP2;ratioP2;P2;SDS_P1;SDS_P2;PMS_P1;PMS_P2;Temp;Humidity;BMP_temperature;BMP_pressure;BME280_temperature;BME280_humidity;BME280_pressure;Samples;Min_cycle;Max_cycle;Signal;HPM_P1;HPM_P2
2022/04/17 00:00:26;;;;;;;0.80;0.80;;;;;;;5.63;77.39;97512.73;110116;1247;67625;-70
2022/04/17 00:03:08;;;;;;;0.80;0.80;;;;;;;5.59;77.41;97512.77;110142;1247;59749;-68
2022/04/17 00:05:38;;;;;;;1.30;1.10;;;;;;;5.56;77.63;97514.13;110170;1247;59712;-69
2022/04/17 00:08:08;;;;;;;2.60;1.20;;;;;;;5.50;77.92;97519.23;110081;1248;70824;-67
2022/04/17 00:10:38;;;;;;;;;;;;;;;5.45;77.97;97518.83;110155;1247;68293;-68
2022/04/17 00:13:08;;;;;;;0.70;0.70;;;;;;;5.30;78.80;97524.78;110085;1247;69626;-70
2022/04/17 00:15:39;;;;;;;0.90;0.80;;;;;;;5.28;78.66;97528.51;110033;1247;59730;-70
2022/04/17 00:18:09;;;;;;;1.00;0.80;;;;;;;5.23;79.28;97527.34;109945;1250;59699;-69
2022/04/17 00:20:39;;;;;;;1.00;0.90;;;;;;;5.17;78.78;97524.90;109952;1247;70553;-68
2022/04/17 00:23:09;;;;;;;1.30;1.10;;;;;;;5.11;79.46;97522.60;110078;1247;69245;-69
2022/04/17 00:25:39;;;;;;;1.00;1.00;;;;;;;4.98;79.28;97526.70;109832;1248;68842;-69
2022/04/17 00:28:10;;;;;;;0.90;0.90;;;;;;;4.94;78.83;97528.96;110035;1247;59751;-69
2022/04/17 00:30:40;;;;;;;1.00;0.90;;;;;;;4.92;79.82;97534.59;110193;1245;59667;-69
2022/04/17 00:33:11;;;;;;;1.00;1.00;;;;;;;4.89;79.51;97531.61;110121;1247;70723;-68
2022/04/17 00:35:45;;;;;;;1.10;1.00;;;;;;;4.87;79.81;97529.61;110185;1247;68595;-69
2022/04/17 00:38:14;;;;;;;1.20;1.00;;;;;;;4.85;79.95;97531.63;110130;1247;69310;-68
2022/04/17 00:40:44;;;;;;;1.60;1.10;;;;;;;4.81;80.25;97537.33;110090;1247;59630;-69
2022/04/17 00:43:31;;;;;;;1.30;1.00;;;;;;;4.77;80.66;97538.39;110050;1247;59754;-68
2022/04/17 00:46:01;;;;;;;1.10;1.00;;;;;;;4.71;80.25;97537.11;110207;1247;71411;-68
2022/04/17 00:48:31;;;;;;;1.40;1.10;;;;;;;4.67;80.37;97537.66;110409;1245;69407;-67
2022/04/17 00:51:01;;;;;;;1.50;1.10;;;;;;;4.65;80.72;97536.72;110254;1247;68666;-68
2022/04/17 00:53:31;;;;;;;1.10;1.00;;;;;;;4.63;81.04;97536.48;110097;1247;60073;-67
2022/04/17 00:56:04;;;;;;;0.90;0.80;;;;;;;4.58;81.99;97536.35;110423;1245;59643;-68
2022/04/17 00:58:38;;;;;;;1.10;1.00;;;;;;;4.52;83.01;97541.11;110301;1247;70731;-68
2022/04/17 01:01:08;;;;;;;1.20;0.80;;;;;;;4.50;82.76;97538.11;110102;1247;69203;-68
2022/04/17 01:03:41;;;;;;;1.50;1.20;;;;;;;4.47;83.04;97533.55;109875;1248;68702;-69
2022/04/17 01:06:11;;;;;;;1.70;1.00;;;;;;;4.42;84.25;97533.14;110541;1246;59717;-68
2022/04/17 01:08:41;;;;;;;1.30;0.80;;;;;;;4.38;84.57;97536.41;110588;1245;59726;-68
2022/04/17 01:11:12;;;;;;;1.20;0.90;;;;;;;4.37;84.79;97534.77;110045;1247;71518;-70
2022/04/17 01:13:42;;;;;;;;;;;;;;;4.34;84.76;97526.77;110429;1245;69244;-69
2022/04/17 01:16:16;;;;;;;1.20;1.10;;;;;;;4.26;84.42;97530.95;110412;1247;68612;-69
2022/04/17 01:19:03;;;;;;;1.40;1.00;;;;;;;4.25;84.01;97529.77;110083;1247;59747;-69
2022/04/17 01:21:34;;;;;;;1.30;1.10;;;;;;;4.24;83.58;97533.95;110333;1247;59683;-68
2022/04/17 01:26:57;;;;;;;1.20;1.10;;;;;;;4.22;83.47;97536.15;110445;1247;68983;-68
2022/04/17 01:29:31;;;;;;;0.90;0.90;;;;;;;4.22;83.82;97538.36;110272;1245;69222;-68
2022/04/17 01:32:03;;;;;;;1.70;1.30;;;;;;;4.19;84.49;97538.48;109960;1248;59706;-68
2022/04/17 01:34:34;;;;;;;1.30;1.20;;;;;;;4.17;84.99;97535.81;110401;1247;59700;-69
2022/04/17 01:37:05;;;;;;;1.60;1.20;;;;;;;4.15;84.65;97535.90;110455;1246;70757;-69
2022/04/17 01:39:34;;;;;;;;;;;;;;;4.14;84.34;97538.23;110088;1247;68754;-70
2022/04/17 01:42:05;;;;;;;1.00;1.00;;;;;;;4.12;85.01;97543.84;110144;1246;68775;-69
2022/04/17 01:44:35;;;;;;;1.90;1.00;;;;;;;4.12;85.06;97542.81;110124;1247;59695;-68
2022/04/17 01:47:06;;;;;;;1.20;1.10;;;;;;;4.11;84.73;97544.40;110045;1247;59670;-68
2022/04/17 01:49:36;;;;;;;1.60;1.20;;;;;;;4.09;85.05;97544.98;110171;1247;71513;-68
2022/04/17 01:52:08;;;;;;;1.20;1.00;;;;;;;4.06;85.40;97543.38;109847;1248;69400;-69
2022/04/17 01:54:37;;;;;;;1.90;1.10;;;;;;;4.05;84.74;97545.64;109830;1250;68685;-69
2022/04/17 01:57:08;;;;;;;1.30;1.20;;;;;;;4.03;84.91;97545.73;110048;1247;59688;-68
2022/04/17 01:59:39;;;;;;;1.40;1.30;;;;;;;4.02;83.98;97546.33;109869;1247;59707;-68
2022/04/17 02:02:09;;;;;;;1.30;1.10;;;;;;;4.01;84.27;97547.73;110060;1247;71191;-68
2022/04/17 02:04:41;;;;;;;2.00;1.20;;;;;;;3.99;84.58;97544.21;109665;1249;68415;-66
2022/04/17 02:07:11;;;;;;;1.40;1.20;;;;;;;3.98;84.22;97543.41;109856;1250;69714;-68
2022/04/17 02:09:41;;;;;;;1.70;1.20;;;;;;;3.99;83.95;97543.88;109992;1247;59735;-70
2022/04/17 02:12:12;;;;;;;1.40;1.20;;;;;;;3.98;84.15;97544.11;110098;1247;60104;-67
2022/04/17 02:14:43;;;;;;;1.90;1.10;;;;;;;3.96;84.31;97541.59;110179;1248;70670;-69
2022/04/17 02:17:14;;;;;;;1.60;1.30;;;;;;;3.95;83.30;97540.10;110103;1247;69495;-69
2022/04/17 02:19:44;;;;;;;1.80;1.30;;;;;;;3.94;83.31;97539.61;110035;1247;68633;-69
2022/04/17 02:22:15;;;;;;;1.40;1.00;;;;;;;3.90;84.09;97538.22;109961;1248;59807;-69
2022/04/17 02:24:45;;;;;;;1.40;1.30;;;;;;;3.88;84.14;97539.54;109992;1250;59728;-68
2022/04/17 02:27:15;;;;;;;;;;;;;;;3.88;83.66;97539.21;109828;1249;71351;-68
2022/04/17 02:29:46;;;;;;;2.50;1.60;;;;;;;3.87;83.88;97540.95;109971;1250;69361;-68
2022/04/17 02:32:18;;;;;;;1.40;1.10;;;;;;;3.87;84.96;97541.98;109978;1247;69398;-69
2022/04/17 02:34:49;;;;;;;1.50;1.30;;;;;;;3.89;84.68;97545.19;109822;1247;59753;-69
2022/04/17 02:37:21;;;;;;;1.50;1.40;;;;;;;3.86;85.67;97546.89;109889;1247;59747;-69
2022/04/17 02:39:51;;;;;;;1.30;1.20;;;;;;;3.86;85.74;97548.23;109952;1249;70608;-71
2022/04/17 02:42:21;;;;;;;1.60;1.50;;;;;;;3.88;85.67;97549.02;110115;1247;68718;-69
2022/04/17 02:44:52;;;;;;;1.40;1.30;;;;;;;3.82;86.05;97551.67;110058;1247;69416;-68
2022/04/17 02:50:13;;;;;;;1.90;1.50;;;;;;;3.76;85.67;97554.18;110068;1247;59681;-69
2022/04/17 02:52:43;;;;;;;1.70;1.60;;;;;;;3.73;85.38;97555.53;110075;1247;70667;-68
2022/04/17 02:55:14;;;;;;;1.80;1.40;;;;;;;3.69;84.37;97554.48;109882;1249;69376;-69
2022/04/17 02:57:43;;;;;;;;;;;;;;;3.63;82.64;97554.59;110092;1247;69251;-69
2022/04/17 03:00:15;;;;;;;2.30;1.40;;;;;;;3.58;80.57;97553.23;110048;1247;59717;-69
2022/04/17 03:05:37;;;;;;;2.50;1.80;;;;;;;3.53;79.92;97558.27;110090;1247;70762;-68
2022/04/17 03:08:13;;;;;;;2.10;1.70;;;;;;;3.53;78.97;97557.60;110042;1247;69409;-69
2022/04/17 03:10:49;;;;;;;2.80;1.90;;;;;;;3.52;78.05;97564.02;109812;1247;69372;-67
2022/04/17 03:13:18;;;;;;;3.80;2.10;;;;;;;3.49;77.73;97557.91;109956;1248;59721;-68
2022/04/17 03:15:49;;;;;;;1.90;1.50;;;;;;;3.49;76.88;97559.98;109985;1248;59691;-68
2022/04/17 03:18:20;;;;;;;2.30;1.90;;;;;;;3.50;78.86;97556.86;109947;1248;71739;-68
2022/04/17 03:20:50;;;;;;;2.30;2.00;;;;;;;3.48;79.11;97555.55;110060;1247;69476;-68
2022/04/17 03:23:21;;;;;;;2.90;2.10;;;;;;;3.47;77.67;97555.08;109999;1248;69270;-68
2022/04/17 03:25:51;;;;;;;2.60;2.10;;;;;;;3.48;78.57;97557.10;110023;1247;59764;-68
2022/04/17 03:28:22;;;;;;;2.60;2.20;;;;;;;3.51;79.42;97557.50;109863;1247;59675;-69
2022/04/17 03:30:52;;;;;;;2.70;2.10;;;;;;;3.50;80.29;97558.40;109854;1248;70763;-69
2022/04/17 03:33:23;;;;;;;2.20;1.90;;;;;;;3.50;80.36;97562.35;110052;1247;68453;-69
2022/04/17 03:35:53;;;;;;;2.30;2.10;;;;;;;3.52;80.08;97567.95;110061;1247;69466;-68
2022/04/17 03:38:25;;;;;;;3.00;2.20;;;;;;;3.54;80.43;97569.77;109997;1248;59759;-67
2022/04/17 03:40:55;;;;;;;2.90;2.50;;;;;;;3.54;80.41;97569.44;110081;1247;59752;-68
2022/04/17 03:43:25;;;;;;;2.50;2.10;;;;;;;3.52;80.31;97573.66;110054;1247;71440;-67
2022/04/17 03:45:55;;;;;;;2.80;2.40;;;;;;;3.52;79.51;97576.07;109977;1248;67457;-69
2022/04/17 03:48:25;;;;;;;3.00;2.00;;;;;;;3.50;79.20;97572.00;109982;1247;68635;-68
2022/04/17 03:50:56;;;;;;;3.20;2.10;;;;;;;3.50;79.26;97578.20;110016;1247;59677;-69
2022/04/17 03:53:26;;;;;;;2.90;2.50;;;;;;;3.51;79.73;97583.00;110007;1247;59757;-68
2022/04/17 03:55:56;;;;;;;3.00;2.40;;;;;;;3.51;80.23;97583.51;110035;1247;70652;-68
2022/04/17 03:58:25;;;;;;;3.20;2.30;;;;;;;3.52;79.93;97586.41;110065;1247;69429;-68
2022/04/17 04:00:55;;;;;;;3.80;2.80;;;;;;;3.51;79.81;97586.09;110093;1247;67655;-68
2022/04/17 04:03:24;;;;;;;3.30;2.90;;;;;;;3.48;79.71;97590.88;110092;1246;59757;-68
2022/04/17 04:05:55;;;;;;;3.00;2.60;;;;;;;3.43;80.34;97588.66;110057;1247;59666;-69
2022/04/17 04:08:26;;;;;;;2.60;2.10;;;;;;;3.45;81.11;97591.34;110038;1247;71580;-69
2022/04/17 04:10:55;;;;;;;2.90;2.30;;;;;;;3.48;80.02;97591.05;110072;1247;69259;-67
2022/04/17 04:13:25;;;;;;;3.40;3.10;;;;;;;3.49;79.26;97592.73;110104;1246;69490;-68
2022/04/17 04:15:55;;;;;;;3.10;2.50;;;;;;;3.49;78.99;97594.27;109795;1247;59726;-68
2022/04/17 04:18:26;;;;;;;3.40;2.40;;;;;;;3.50;79.22;97596.64;110215;1246;59771;-65
2022/04/17 04:20:55;;;;;;;3.60;2.50;;;;;;;3.55;79.48;97602.14;110036;1247;70418;-67
2022/04/17 04:23:26;;;;;;;2.60;2.10;;;;;;;3.59;79.02;97604.55;109966;1247;68653;-68
2022/04/17 04:25:56;;;;;;;;;;;;;;;3.59;77.76;97606.64;109965;1248;69345;-66
2022/04/17 04:28:38;;;;;;;3.20;2.10;;;;;;;3.55;76.66;97606.08;109787;1247;59773;-66
2022/04/17 04:31:11;;;;;;;2.10;1.70;;;;;;;3.53;76.77;97606.52;110095;1247;59733;-69
2022/04/17 04:33:43;;;;;;;3.30;2.00;;;;;;;3.53;77.34;97604.64;109808;1248;71485;-68
2022/04/17 04:36:12;;;;;;;3.00;2.30;;;;;;;3.54;77.83;97601.98;110054;1247;69370;-67
2022/04/17 04:38:42;;;;;;;4.10;2.80;;;;;;;3.56;78.09;97599.68;110082;1247;69400;-68
2022/04/17 04:41:12;;;;;;;3.40;2.60;;;;;;;3.59;78.29;97599.05;109802;1247;59681;-67
2022/04/17 04:43:41;;;;;;;2.90;2.60;;;;;;;3.61;77.60;97605.38;110014;1247;59725;-65
2022/04/17 04:46:10;;;;;;;2.90;2.30;;;;;;;3.62;78.01;97608.05;110117;1246;71590;-68
2022/04/17 04:51:34;;;;;;;3.30;2.30;;;;;;;3.67;77.91;97613.70;110156;1248;68616;-67
2022/04/17 04:54:07;;;;;;;2.70;1.90;;;;;;;3.71;77.84;97613.04;109888;1247;59739;-69
2022/04/17 04:56:38;;;;;;;3.00;2.40;;;;;;;3.74;77.50;97613.58;110064;1247;59673;-68
2022/04/17 04:59:09;;;;;;;5.00;3.80;;;;;;;3.76;77.85;97616.42;109805;1248;70817;-68
2022/04/17 05:01:39;;;;;;;6.60;3.80;;;;;;;3.78;77.45;97621.84;110072;1247;68602;-69
2022/04/17 05:04:11;;;;;;;5.00;4.00;;;;;;;3.78;77.56;97632.38;109562;1250;69564;-67
2022/04/17 05:06:40;;;;;;;5.70;4.30;;;;;;;3.77;77.61;97632.08;109810;1247;59720;-69
2022/04/17 05:09:09;;;;;;;4.30;3.20;;;;;;;3.76;78.08;97631.62;110052;1247;59749;-68
2022/04/17 05:11:39;;;;;;;4.20;3.10;;;;;;;3.78;79.03;97628.40;109983;1247;71608;-68
2022/04/17 05:14:09;;;;;;;3.20;2.90;;;;;;;3.79;79.21;97626.12;109946;1247;68922;-67
2022/04/17 05:16:38;;;;;;;3.20;2.60;;;;;;;3.79;78.66;97615.77;110026;1247;69241;-68
2022/04/17 05:19:27;;;;;;;2.60;2.40;;;;;;;3.80;79.28;97612.61;109767;1247;59765;-68
2022/04/17 05:21:58;;;;;;;4.50;2.60;;;;;;;3.86;81.47;97605.30;110234;1247;59698;-68
2022/04/17 05:24:27;;;;;;;;;;;;;;;3.89;79.30;97606.38;109995;1247;70803;-68
2022/04/17 05:26:57;;;;;;;3.60;3.00;;;;;;;3.91;76.66;97610.45;110086;1247;67981;-68
2022/04/17 05:29:26;;;;;;;3.70;2.70;;;;;;;3.94;75.63;97615.48;110066;1247;69444;-68
2022/04/17 05:31:55;;;;;;;3.40;2.60;;;;;;;3.93;74.81;97618.11;110071;1247;60146;-69
2022/04/17 05:34:25;;;;;;;4.00;2.80;;;;;;;3.92;75.75;97629.02;110304;1246;59685;-67
2022/04/17 05:36:54;;;;;;;4.00;2.80;;;;;;;3.96;76.90;97630.02;109965;1247;71605;-68
2022/04/17 05:39:24;;;;;;;3.40;2.80;;;;;;;4.01;77.25;97629.14;109928;1248;68725;-69
2022/04/17 05:41:53;;;;;;;3.00;2.30;;;;;;;4.03;77.99;97629.73;110031;1247;68741;-69
2022/04/17 05:44:22;;;;;;;4.00;2.90;;;;;;;4.04;79.73;97638.52;110245;1247;59677;-68
2022/04/17 05:46:51;;;;;;;3.30;2.60;;;;;;;4.02;80.29;97648.91;110002;1247;59741;-68
2022/04/17 05:49:21;;;;;;;3.50;2.40;;;;;;;3.90;80.80;97646.70;110018;1247;70786;-68
2022/04/17 05:51:52;;;;;;;4.50;2.80;;;;;;;3.79;80.78;97646.77;110046;1247;69540;-70
2022/04/17 05:54:22;;;;;;;4.10;3.30;;;;;;;3.80;79.67;97650.37;110073;1247;69427;-68
2022/04/17 05:56:51;;;;;;;4.00;2.80;;;;;;;3.72;79.66;97661.92;110190;1247;59747;-70
2022/04/17 05:59:20;;;;;;;4.10;2.90;;;;;;;3.60;79.81;97673.27;109942;1248;59717;-68
2022/04/17 06:01:49;;;;;;;3.30;2.60;;;;;;;3.52;79.78;97684.11;110060;1247;70787;-68
2022/04/17 06:04:18;;;;;;;2.70;2.40;;;;;;;3.38;80.10;97687.10;110086;1247;69359;-68
2022/04/17 06:06:47;;;;;;;6.00;3.70;;;;;;;3.22;80.36;97682.21;110011;1247;68906;-68
2022/04/17 06:09:17;;;;;;;3.80;3.40;;;;;;;3.10;81.05;97673.87;110028;1247;59761;-66
2022/04/17 06:11:46;;;;;;;3.80;2.60;;;;;;;3.04;81.26;97666.55;109834;1248;59692;-68
2022/04/17 06:14:15;;;;;;;2.70;2.10;;;;;;;3.02;81.45;97667.28;109939;1248;71601;-69
2022/04/17 06:16:44;;;;;;;4.10;2.70;;;;;;;3.06;80.75;97666.46;110025;1247;68656;-67
2022/04/17 06:19:14;;;;;;;2.80;2.10;;;;;;;3.05;80.95;97667.85;109871;1248;69463;-68
2022/04/17 06:21:43;;;;;;;;;;;;;;;3.09;80.44;97675.48;110045;1247;59745;-67
2022/04/17 06:24:13;;;;;;;3.00;2.10;;;;;;;3.11;81.13;97682.98;110046;1247;59754;-68
2022/04/17 06:26:42;;;;;;;4.50;2.80;;;;;;;3.14;80.40;97681.82;109840;1248;71667;-68
2022/04/17 06:29:11;;;;;;;4.30;2.70;;;;;;;3.17;80.42;97684.45;109940;1248;68762;-68
2022/04/17 06:31:45;;;;;;;3.10;2.80;;;;;;;3.19;80.13;97685.09;109818;1250;68592;-67
2022/04/17 06:34:15;;;;;;;3.20;2.60;;;;;;;3.23;80.35;97682.84;109936;1247;59767;-67
2022/04/17 06:36:44;;;;;;;3.90;3.10;;;;;;;3.28;80.71;97683.34;110183;1247;59658;-68
2022/04/17 06:39:13;;;;;;;3.70;2.70;;;;;;;3.34;80.95;97686.56;110085;1248;72271;-68
2022/04/17 06:41:45;;;;;;;5.30;3.70;;;;;;;3.42;80.43;97691.59;110064;1247;69431;-68
2022/04/17 06:44:15;;;;;;;4.00;2.90;;;;;;;3.47;80.46;97698.59;109897;1248;69074;-67
2022/04/17 06:46:44;;;;;;;6.80;4.50;;;;;;;3.55;80.58;97702.27;110099;1247;59738;-67
2022/04/17 06:49:15;;;;;;;8.00;4.70;;;;;;;3.60;79.94;97699.85;109624;1250;59763;-69
2022/04/17 06:51:44;;;;;;;4.80;3.10;;;;;;;3.65;79.35;97702.73;109974;1247;71677;-66
2022/04/17 06:54:19;;;;;;;5.90;3.40;;;;;;;3.67;79.21;97706.10;109841;1248;68558;-68
2022/04/17 06:56:48;;;;;;;4.90;3.40;;;;;;;3.71;78.80;97706.29;110064;1247;69536;-69
2022/04/17 06:59:17;;;;;;;3.90;2.70;;;;;;;3.77;79.32;97704.62;109956;1247;59821;-67
2022/04/17 07:01:48;;;;;;;3.30;2.60;;;;;;;3.81;79.75;97696.88;109841;1248;59639;-68
2022/04/17 07:04:18;;;;;;;3.70;2.70;;;;;;;3.78;80.13;97698.40;109911;1247;72301;-68
2022/04/17 07:06:47;;;;;;;3.80;2.80;;;;;;;3.79;79.93;97699.73;109987;1247;68698;-68
2022/04/17 07:09:16;;;;;;;3.30;2.60;;;;;;;3.80;78.88;97700.71;109945;1247;68671;-66
2022/04/17 07:11:45;;;;;;;3.70;2.80;;;;;;;3.79;79.59;97705.77;109784;1250;59844;-67
2022/04/17 07:14:15;;;;;;;3.80;3.10;;;;;;;3.77;79.48;97707.94;110039;1247;59646;-68
2022/04/17 07:16:47;;;;;;;5.50;3.80;;;;;;;3.94;79.29;97708.80;110039;1247;71517;-68
2022/04/17 07:19:17;;;;;;;3.90;3.20;;;;;;;3.82;79.55;97711.34;110088;1247;69572;-66
2022/04/17 07:21:46;;;;;;;4.70;3.60;;;;;;;3.92;79.53;97712.81;109981;1247;68812;-69
2022/04/17 07:24:15;;;;;;;4.70;3.60;;;;;;;3.95;80.33;97710.11;110018;1247;59742;-68
2022/04/17 07:26:44;;;;;;;5.20;3.90;;;;;;;4.00;80.49;97709.04;110111;1247;59609;-67
2022/04/17 07:29:13;;;;;;;4.40;3.70;;;;;;;4.09;79.51;97709.67;110049;1247;71514;-69
2022/04/17 07:31:43;;;;;;;4.50;3.40;;;;;;;4.21;78.72;97709.89;110029;1247;68696;-67
2022/04/17 07:34:12;;;;;;;4.60;3.70;;;;;;;4.25;77.67;97711.09;110110;1247;67808;-66
2022/04/17 07:36:42;;;;;;;4.70;4.00;;;;;;;4.27;77.71;97708.41;110097;1247;59732;-67
2022/04/17 07:39:22;;;;;;;3.60;3.00;;;;;;;4.23;77.95;97709.80;110015;1247;59672;-66
2022/04/17 07:41:59;;;;;;;12.70;8.00;;;;;;;4.28;78.13;97712.84;110162;1247;70727;-67
2022/04/17 07:44:32;;;;;;;6.20;4.20;;;;;;;4.44;78.29;97711.84;110112;1247;68610;-68
2022/04/17 07:47:07;;;;;;;4.50;3.40;;;;;;;4.56;78.38;97708.86;110038;1247;69478;-69
2022/04/17 07:49:44;;;;;;;3.50;2.80;;;;;;;4.74;77.77;97703.79;109881;1250;59763;-68
2022/04/17 07:52:13;;;;;;;3.90;2.90;;;;;;;4.88;76.96;97705.73;110064;1247;59739;-66
2022/04/17 07:54:49;;;;;;;5.40;3.70;;;;;;;4.97;76.70;97704.63;110120;1247;70745;-67
2022/04/17 07:57:18;;;;;;;3.90;3.20;;;;;;;5.08;76.70;97705.15;109989;1248;69356;-67
2022/04/17 07:59:50;;;;;;;3.80;2.80;;;;;;;5.08;75.89;97709.11;109987;1247;70282;-68
2022/04/17 08:02:50;;;;;;;3.20;2.60;;;;;;;5.11;75.32;97710.38;110063;1247;59763;-68
2022/04/17 08:05:23;;;;;;;4.30;2.90;;;;;;;5.23;74.88;97707.96;109849;1247;59742;-66
2022/04/17 08:07:52;;;;;;;3.50;2.50;;;;;;;5.25;73.76;97708.89;110124;1247;71849;-67
2022/04/17 08:10:22;;;;;;;3.70;2.80;;;;;;;5.37;74.78;97710.20;109809;1247;69327;-67
2022/04/17 08:12:51;;;;;;;3.70;2.50;;;;;;;5.48;74.55;97709.50;109799;1248;68547;-66
2022/04/17 08:15:22;;;;;;;3.10;2.70;;;;;;;5.55;73.72;97708.84;109881;1249;59709;-68
2022/04/17 08:17:51;;;;;;;4.30;3.00;;;;;;;5.55;73.26;97702.77;109799;1250;59653;-69
2022/04/17 08:20:20;;;;;;;3.50;2.80;;;;;;;5.58;72.28;97705.56;110101;1247;70793;-67
2022/04/17 08:22:49;;;;;;;3.40;2.40;;;;;;;5.63;70.76;97706.17;110060;1247;68472;-67
2022/04/17 08:25:19;;;;;;;3.10;2.10;;;;;;;5.77;71.57;97704.82;110158;1247;69689;-67
2022/04/17 08:27:53;;;;;;;2.90;2.60;;;;;;;5.87;70.41;97705.75;109977;1247;59764;-69
2022/04/17 08:30:27;;;;;;;3.50;2.80;;;;;;;5.97;69.46;97701.44;110149;1247;60162;-64
2022/04/17 08:32:58;;;;;;;3.50;3.10;;;;;;;5.97;67.60;97697.80;109832;1247;71970;-66
2022/04/17 08:35:27;;;;;;;3.10;2.50;;;;;;;5.94;67.56;97697.83;110204;1246;69422;-66
2022/04/17 08:38:04;;;;;;;3.50;2.80;;;;;;;5.94;68.12;97699.87;110036;1247;69808;-67
2022/04/17 08:40:33;;;;;;;;;;;;;;;6.00;68.15;97695.09;110106;1247;59754;-68
2022/04/17 08:43:06;;;;;;;3.40;2.90;;;;;;;6.00;67.85;97696.48;110133;1247;60603;-68
2022/04/17 08:45:35;;;;;;;5.70;2.80;;;;;;;5.92;67.28;97698.27;110092;1247;70735;-67
2022/04/17 08:48:05;;;;;;;3.70;3.00;;;;;;;5.94;67.02;97699.40;110211;1247;68619;-66
2022/04/17 08:50:40;;;;;;;3.80;2.90;;;;;;;5.87;66.37;97695.34;109994;1247;69363;-68
2022/04/17 08:53:14;;;;;;;7.10;4.30;;;;;;;5.84;66.38;97694.13;109868;1247;59806;-67
2022/04/17 08:55:51;;;;;;;3.70;3.30;;;;;;;5.76;66.63;97690.54;109962;1247;59665;-68
2022/04/17 08:58:20;;;;;;;3.80;3.10;;;;;;;5.68;67.32;97694.06;110093;1247;72397;-68
2022/04/17 09:00:49;;;;;;;3.00;2.60;;;;;;;5.76;68.53;97692.76;110130;1247;68650;-67
2022/04/17 09:03:19;;;;;;;3.80;2.80;;;;;;;5.75;67.02;97688.16;109980;1246;69287;-68
2022/04/17 09:05:49;;;;;;;3.60;2.70;;;;;;;5.92;66.56;97683.20;109382;1247;835578;-66
2022/04/17 09:08:23;;;;;;;2.90;2.30;;;;;;;5.95;66.49;97684.76;110063;1247;59700;-65
2022/04/17 09:11:24;;;;;;;3.10;2.60;;;;;;;6.11;66.28;97682.43;109905;1247;71878;-67
2022/04/17 09:13:57;;;;;;;4.50;2.60;;;;;;;6.24;65.24;97685.73;110162;1247;68898;-68
2022/04/17 09:16:28;;;;;;;3.20;2.70;;;;;;;6.28;65.19;97687.59;110121;1247;69266;-68
2022/04/17 09:18:58;;;;;;;3.40;2.30;;;;;;;6.45;64.59;97688.13;110224;1244;59770;-67
2022/04/17 09:21:35;;;;;;;3.20;2.80;;;;;;;6.62;63.97;97688.80;110234;1244;59656;-67
2022/04/17 09:24:20;;;;;;;3.10;2.80;;;;;;;6.62;61.79;97686.52;109888;1247;71634;-67
2022/04/17 09:26:55;;;;;;;3.70;2.80;;;;;;;6.68;62.62;97686.77;110068;1247;69550;-67
2022/04/17 09:29:33;;;;;;;5.00;3.40;;;;;;;6.75;61.37;97683.61;110057;1247;69413;-67
2022/04/17 09:32:15;;;;;;;4.00;2.90;;;;;;;6.74;61.71;97681.75;109842;1247;59802;-67
2022/04/17 09:34:58;;;;;;;3.60;2.80;;;;;;;6.59;60.83;97678.87;109770;1247;59698;-69
2022/04/17 09:37:30;;;;;;;2.80;2.50;;;;;;;6.42;61.29;97679.46;109856;1247;71592;-69
2022/04/17 09:40:07;;;;;;;3.90;2.90;;;;;;;6.34;61.70;97674.51;110318;1244;68635;-69
2022/04/17 09:42:36;;;;;;;3.40;2.90;;;;;;;6.18;60.37;97670.84;110089;1247;68276;-68
2022/04/17 09:45:07;;;;;;;4.00;3.60;;;;;;;6.20;60.74;97673.33;110035;1247;59717;-67
2022/04/17 09:47:36;;;;;;;3.40;2.90;;;;;;;6.31;62.39;97667.91;110166;1247;59673;-66
2022/04/17 09:50:17;;;;;;;3.90;2.80;;;;;;;6.19;61.06;97668.51;110062;1247;71012;-65
2022/04/17 09:52:52;;;;;;;4.20;2.90;;;;;;;6.22;61.50;97665.79;109837;1248;69796;-67
2022/04/17 09:55:27;;;;;;;5.20;4.70;;;;;;;6.32;62.67;97665.10;110107;1247;69822;-68
2022/04/17 09:57:58;;;;;;;3.00;2.50;;;;;;;6.36;60.66;97666.27;109969;1247;59768;-68
2022/04/17 10:00:41;;;;;;;3.10;2.60;;;;;;;6.39;60.54;97664.70;110183;1247;59751;-69
2022/04/17 10:03:11;;;;;;;3.20;2.90;;;;;;;6.46;59.48;97659.84;110258;1247;70760;-69
2022/04/17 10:05:41;;;;;;;4.60;3.20;;;;;;;6.57;60.10;97659.11;110070;1246;69385;-68
2022/04/17 10:08:11;;;;;;;4.20;3.10;;;;;;;6.75;60.69;97657.30;110032;1247;69507;-68
2022/04/17 10:10:40;;;;;;;4.10;3.40;;;;;;;6.96;59.91;97656.34;110086;1247;59665;-70
2022/04/17 10:13:10;;;;;;;3.60;3.30;;;;;;;7.16;60.60;97651.91;110113;1246;59720;-68
2022/04/17 10:15:40;;;;;;;3.70;2.80;;;;;;;7.29;59.43;97650.52;110070;1247;70605;-67
2022/04/17 10:18:11;;;;;;;4.10;2.90;;;;;;;7.42;59.23;97648.38;109972;1247;70155;-69
2022/04/17 10:20:40;;;;;;;;;;;;;;;7.45;58.94;97649.10;110130;1247;70245;-67
2022/04/17 10:23:11;;;;;;;7.10;4.80;;;;;;;7.59;58.05;97643.43;110312;1244;59667;-67
2022/04/17 10:25:42;;;;;;;4.70;2.90;;;;;;;7.93;57.11;97640.46;110253;1246;59643;-69
2022/04/17 10:28:14;;;;;;;3.00;2.40;;;;;;;8.13;54.56;97631.83;110148;1247;71943;-68
2022/04/17 10:31:06;;;;;;;3.10;2.30;;;;;;;8.15;52.51;97626.33;109924;1247;69286;-68
2022/04/17 10:33:58;;;;;;;3.30;2.30;;;;;;;8.43;52.84;97621.17;109995;1247;68701;-67
2022/04/17 10:36:34;;;;;;;8.40;5.00;;;;;;;8.73;54.63;97622.48;109748;1247;59680;-69
2022/04/17 10:39:16;;;;;;;2.90;2.30;;;;;;;9.28;51.00;97623.03;110135;1247;59672;-69
2022/04/17 10:41:48;;;;;;;2.60;2.00;;;;;;;9.62;47.63;97621.12;109973;1247;71505;-65
2022/04/17 10:44:28;;;;;;;2.50;2.10;;;;;;;9.79;44.33;97619.34;110158;1247;69250;-68
2022/04/17 10:47:05;;;;;;;2.70;2.40;;;;;;;9.72;43.71;97613.35;110130;1246;69407;-67
2022/04/17 10:50:04;;;;;;;3.40;2.90;;;;;;;10.07;45.33;97603.52;109874;1247;59770;-67
2022/04/17 10:52:41;;;;;;;4.20;3.40;;;;;;;10.85;47.33;97603.23;110077;1247;59740;-70
2022/04/17 10:55:14;;;;;;;;;;;;;;;11.39;46.17;97607.02;110143;1244;71618;-69
2022/04/17 10:57:45;;;;;;;4.00;2.70;;;;;;;11.65;44.50;97608.54;110059;1247;68982;-69
2022/04/17 11:00:23;;;;;;;;;;;;;;;11.74;40.73;97603.05;110154;1247;67655;-69
2022/04/17 11:03:22;;;;;;;3.70;1.90;;;;;;;11.78;35.02;97595.76;110092;1247;59721;-69
2022/04/17 11:08:47;;;;;;;2.50;2.00;;;;;;;11.93;35.73;97593.41;110107;1247;71612;-67
2022/04/17 11:11:16;;;;;;;2.70;1.70;;;;;;;12.11;36.51;97588.40;110126;1247;70179;-69
2022/04/17 11:14:11;;;;;;;2.00;1.80;;;;;;;12.05;35.78;97582.52;109999;1247;69453;-68
2022/04/17 11:16:56;;;;;;;3.00;2.20;;;;;;;11.71;37.33;97584.23;110001;1247;59697;-67
2022/04/17 11:19:28;;;;;;;2.90;2.40;;;;;;;11.72;37.54;97584.61;110020;1247;59731;-69
2022/04/17 11:22:03;;;;;;;2.50;2.10;;;;;;;11.97;35.83;97575.30;109822;1247;73011;-68
2022/04/17 11:24:54;;;;;;;2.50;2.00;;;;;;;12.13;35.46;97580.70;109935;1248;68498;-68
2022/04/17 11:27:48;;;;;;;1.90;1.50;;;;;;;12.02;35.57;97580.33;110036;1247;69432;-70
2022/04/17 11:30:37;;;;;;;2.30;1.90;;;;;;;12.21;35.18;97579.96;109876;1248;59691;-69
2022/04/17 11:33:07;;;;;;;3.00;2.10;;;;;;;12.45;35.70;97577.73;110045;1247;59653;-69
2022/04/17 11:35:40;;;;;;;2.10;1.90;;;;;;;12.36;35.39;97578.24;110063;1247;71669;-67
2022/04/17 11:38:10;;;;;;;2.90;2.20;;;;;;;12.22;34.83;97574.90;110145;1247;69480;-70
2022/04/17 11:40:44;;;;;;;2.20;2.00;;;;;;;12.16;35.72;97572.60;110009;1247;69805;-69
2022/04/17 11:43:16;;;;;;;3.80;2.40;;;;;;;12.04;35.38;97575.50;110123;1247;59670;-70
2022/04/17 11:45:46;;;;;;;2.50;2.00;;;;;;;11.73;36.73;97574.11;110080;1247;59734;-69
2022/04/17 11:48:18;;;;;;;2.60;2.00;;;;;;;11.67;36.34;97572.80;110100;1247;70588;-71
2022/04/17 11:50:54;;;;;;;2.50;2.00;;;;;;;11.61;36.70;97564.70;110245;1246;69660;-70
2022/04/17 11:53:24;;;;;;;2.50;2.10;;;;;;;11.10;37.16;97570.23;109923;1247;67914;-75
2022/04/17 11:55:55;;;;;;;2.60;2.40;;;;;;;10.58;36.69;97568.16;110066;1247;59764;-69
2022/04/17 11:58:28;;;;;;;2.60;2.10;;;;;;;10.35;37.05;97570.96;109923;1247;59703;-68
2022/04/17 12:00:59;;;;;;;2.30;1.90;;;;;;;10.26;37.68;97564.27;110085;1247;70589;-70
2022/04/17 12:03:44;;;;;;;2.70;2.40;;;;;;;10.00;37.31;97559.40;110100;1247;69381;-69
2022/04/17 12:06:14;;;;;;;3.60;2.00;;;;;;;9.68;37.79;97559.64;110091;1247;68969;-71
2022/04/17 12:08:44;;;;;;;3.80;2.40;;;;;;;9.54;37.43;97553.11;110071;1247;59729;-69
2022/04/17 12:11:18;;;;;;;3.20;2.50;;;;;;;9.69;38.02;97546.38;110012;1247;59659;-69
2022/04/17 12:13:54;;;;;;;2.70;2.30;;;;;;;9.71;36.60;97546.92;110094;1247;70733;-68